Data for 05/07/2007

Time Sea-Level Adjusted Pressure Absolute Pressure Temperature Relative Humidity Dew Point   
(mb) (inHg) (mb) (inHg) (C) (F) (%) (C) (F)
00:05 1021 30.15 851 25.13 7.2 45 54 -1.5 29.2
00:10 1021 30.15 851 25.13 6.9 44.4 55 -1.4 29.4
00:15 1021 30.15 851 25.13 6.8 44.3 55 -1.6 29
00:20 1021 30.15 851 25.13 6.7 44 54 -1.9 28.6
00:25 1021 30.15 851 25.13 6.6 43.8 54 -2.1 28.3
00:30 1021 30.15 851 25.13 6.5 43.7 55 -1.9 28.6
00:35 1021 30.15 851 25.13 6.4 43.5 55 -2 28.4
00:40 1022 30.18 851 25.13 6.5 43.7 55 -1.9 28.6
00:45 1022 30.18 851 25.13 6.4 43.5 55 -2 28.4
00:50 1022 30.18 851 25.13 6.8 44.2 53 -2.1 28.1
00:55 1022 30.18 851 25.13 6.7 44.1 54 -2 28.4
01:00 1022 30.18 851 25.13 6.3 43.3 57 -1.7 28.9
01:05 1022 30.18 851 25.13 5.7 42.2 59 -1.7 28.9
01:10 1022 30.18 851 25.13 5.4 41.7 59 -2 28.5
01:15 1022 30.18 851 25.13 5.5 42 58 -2.1 28.3
01:20 1022 30.18 851 25.13 5.7 42.2 58 -1.9 28.6
01:25 1022 30.18 851 25.13 5.6 42.1 59 -1.8 28.7
01:30 1022 30.18 851 25.13 5.8 42.4 57 -2 28.4
01:35 1022 30.18 851 25.13 6.1 42.9 55 -2.2 28
01:40 1022 30.18 851 25.13 6.4 43.5 54 -2.2 28
01:45 1022 30.18 851 25.13 6.3 43.4 55 -2.2 28.1
01:50 1022 30.18 851 25.13 6.3 43.4 56 -1.9 28.6
01:55 1022 30.18 851 25.13 6 42.9 57 -1.8 28.7
02:00 1022 30.18 851 25.13 5.6 42.1 59 -1.8 28.8
02:05 1022 30.18 851 25.13 5 41 62 -1.7 29
02:10 1022 30.18 851 25.13 4.7 40.5 62 -2 28.4
02:15 1022 30.18 851 25.13 5.1 41.1 59 -2.2 28
02:20 1022 30.18 851 25.13 5.4 41.6 59 -2.1 28.3
02:25 1022 30.18 851 25.13 5.4 41.7 59 -2 28.4
02:30 1022 30.18 851 25.13 5.6 42 56 -2.4 27.7
02:35 1022 30.18 851 25.13 6 42.7 55 -2.4 27.7
02:40 1022 30.18 851 25.13 6.1 43 55 -2.4 27.8
02:45 1022 30.18 851 25.13 6.2 43.1 55 -2.3 27.9
02:50 1022 30.18 851 25.13 6.2 43.1 54 -2.4 27.8
02:55 1022 30.18 851 25.13 6.2 43.1 55 -2.2 28
03:00 1022 30.18 851 25.13 6.2 43.2 54 -2.3 27.8
03:05 1022 30.18 851 25.13 6.3 43.3 54 -2.4 27.7
03:10 1022 30.18 851 25.13 6.4 43.4 53 -2.5 27.5
03:15 1022 30.18 851 25.13 6.5 43.6 54 -2.2 28
03:20 1022 30.18 851 25.13 6.1 43 56 -2.1 28.3
03:25 1022 30.18 851 25.13 5.5 41.9 58 -2 28.4
03:30 1022 30.18 851 25.13 5 41 60 -2.1 28.1
03:35 1022 30.18 851 25.13 5.2 41.3 59 -2.1 28.1
03:40 1022 30.18 851 25.13 5.1 41.2 59 -2.2 28.1
03:45 1022 30.18 851 25.13 5.3 41.5 57 -2.6 27.4
03:50 1022 30.18 851 25.13 5.4 41.7 58 -2.3 27.9
03:55 1022 30.18 851 25.13 5.3 41.5 58 -2.3 27.9
04:00 1022 30.18 851 25.13 5.2 41.4 58 -2.4 27.7
04:05 1022 30.18 852 25.16 5.3 41.5 58 -2.4 27.7
04:10 1022 30.18 852 25.16 5.1 41.3 57 -2.7 27.2
04:15 1022 30.18 852 25.16 5.1 41.2 58 -2.4 27.7
04:20 1022 30.18 852 25.16 5.1 41.1 58 -2.5 27.5
04:25 1022 30.18 852 25.16 5 40.9 59 -2.4 27.7
04:30 1022 30.18 852 25.16 4.7 40.5 60 -2.5 27.5
04:35 1023 30.21 852 25.16 4.7 40.5 59 -2.6 27.4
04:40 1023 30.21 852 25.16 4.9 40.9 58 -2.7 27.1
04:45 1023 30.21 852 25.16 5.2 41.3 56 -2.8 27
04:50 1023 30.21 852 25.16 5.5 42 55 -2.8 26.9
04:55 1023 30.21 852 25.16 5.9 42.6 53 -2.9 26.9
05:00 1023 30.21 852 25.16 5.8 42.4 55 -2.5 27.4
05:05 1023 30.21 852 25.16 5.3 41.5 58 -2.4 27.7
05:10 1023 30.21 852 25.16 4.6 40.3 60 -2.5 27.5
05:15 1023 30.21 852 25.16 4.6 40.3 59 -2.7 27.2
05:20 1023 30.21 852 25.16 4.7 40.4 59 -2.7 27.2
05:25 1023 30.21 852 25.16 4.6 40.3 59 -2.6 27.3
05:30 1023 30.21 852 25.16 4.6 40.3 60 -2.5 27.6
05:35 1023 30.21 852 25.16 4.6 40.4 61 -2.3 27.9
05:40 1023 30.21 852 25.16 4.4 39.9 62 -2.3 27.8
05:45 1023 30.21 852 25.16 4.2 39.6 62 -2.4 27.7
05:50 1023 30.21 853 25.19 4.1 39.4 63 -2.3 27.8
05:55 1023 30.21 853 25.19 4.1 39.5 60 -2.8 26.9
06:00 1023 30.21 853 25.19 4.5 40.1 60 -2.5 27.5
06:05 1023 30.21 853 25.19 4.4 39.9 61 -2.4 27.7
06:10 1023 30.21 852 25.16 3.9 39.1 64 -2.3 27.9
06:15 1023 30.21 852 25.16 3.7 38.7 64 -2.5 27.4
06:20 1023 30.21 853 25.19 4.1 39.4 62 -2.5 27.5
06:25 1023 30.21 853 25.19 4.4 39.8 60 -2.7 27.1
06:30 1023 30.21 853 25.19 5 40.9 57 -2.7 27.1
06:35 1023 30.21 853 25.19 4.9 40.7 60 -2.3 27.9
06:40 1023 30.21 853 25.19 4.7 40.5 60 -2.4 27.7
06:45 1023 30.21 853 25.19 4.8 40.7 60 -2.4 27.7
06:50 1023 30.21 853 25.19 5 40.9 60 -2.2 28
06:55 1023 30.21 853 25.19 5 41 59 -2.2 28
07:00 1023 30.21 853 25.19 5.2 41.3 58 -2.4 27.7
07:05 1023 30.21 853 25.19 5.6 42.1 57 -2.2 28
07:10 1023 30.21 853 25.19 6 42.8 56 -2.2 28.1
07:15 1023 30.21 853 25.19 6.3 43.3 55 -2.2 28.1
07:20 1024 30.24 853 25.19 6.6 43.8 52 -2.5 27.5
07:25 1024 30.24 853 25.19 6.8 44.2 53 -2.1 28.2
07:30 1024 30.24 853 25.19 6.9 44.5 53 -1.9 28.6
07:35 1024 30.24 853 25.19 7.1 44.8 55 -1.4 29.5
07:40 1024 30.24 853 25.19 7.3 45.1 53 -1.7 29
07:45 1024 30.24 853 25.19 7.6 45.6 52 -1.5 29.3
07:50 1024 30.24 853 25.19 8.3 46.9 50 -1.5 29.3
07:55 1024 30.24 853 25.19 8.8 47.8 49 -1.2 29.8
08:00 1024 30.24 853 25.19 9.2 48.6 46 -1.7 28.9
08:05 1024 30.24 853 25.19 9.8 49.6 45 -1.7 29
08:10 1024 30.24 853 25.19 9.9 49.8 44 -1.9 28.6
08:15 1024 30.24 853 25.19 10 49.9 44 -1.8 28.7
08:20 1024 30.24 853 25.19 10.5 50.9 41 -2 28.4
08:25 1024 30.24 853 25.19 10.3 50.5 43 -1.7 28.9
08:30 1024 30.24 853 25.19 10.5 50.9 41 -2.2 28.1
08:35 1024 30.24 853 25.19 11 51.9 39 -2.5 27.6
08:40 1024 30.24 853 25.19 10.6 51.1 42 -1.8 28.7
08:45 1024 30.24 853 25.19 10.6 51 40 -2.3 27.9
08:50 1024 30.24 853 25.19 10.6 51 42 -1.9 28.6
08:55 1024 30.24 853 25.19 10.6 51.1 42 -1.6 29
09:00 1024 30.24 853 25.19 10.7 51.3 42 -1.8 28.8
09:05 1024 30.24 853 25.19 11 51.7 41 -1.7 28.9
09:10 1024 30.24 853 25.19 10.9 51.7 41 -1.6 29.1
09:15 1024 30.24 853 25.19 10.7 51.2 43 -1.4 29.4
09:20 1024 30.24 853 25.19 10.8 51.4 43 -1.3 29.7
09:25 1024 30.24 853 25.19 11 51.8 43 -1.2 29.8
09:30 1024 30.24 853 25.19 11.2 52.1 42 -1.1 30
09:35 1024 30.24 853 25.19 11.2 52.2 41 -1.4 29.5
09:40 1024 30.24 853 25.19 11.2 52.2 42 -1.2 29.9
09:45 1024 30.24 853 25.19 11.3 52.3 42 -1.1 29.9
09:50 1024 30.24 853 25.19 11.4 52.5 41 -1.5 29.4
09:55 1024 30.24 853 25.19 12.5 54.5 38 -1.3 29.6
10:00 1024 30.24 853 25.19 13 55.4 38 -1 30.1
10:05 1024 30.24 853 25.19 13.6 56.5 36 -1.2 29.8
10:10 1024 30.24 853 25.19 13.8 56.8 37 -0.5 31.2
10:15 1024 30.24 853 25.19 13.6 56.5 37 -0.6 31
10:20 1024 30.24 853 25.19 13.3 55.9 39 -0.2 31.7
10:25 1024 30.24 853 25.19 12.6 54.7 40 -0.5 31.1
10:30 1024 30.24 853 25.19 13.1 55.5 37 -1.1 29.9
10:35 1024 30.24 853 25.19 13.9 57.1 37 -0.6 30.9
10:40 1024 30.24 853 25.19 13.4 56.1 39 -0.1 31.8
10:45 1024 30.24 853 25.19 13.4 56 39 -0.4 31.4
10:50 1024 30.24 853 25.19 13.2 55.7 41 0.2 32.3
10:55 1024 30.24 853 25.19 13.2 55.8 39 -0.5 31
11:00 1024 30.24 853 25.19 14.6 58.3 38 0.4 32.8
11:05 1024 30.24 853 25.19 14.2 57.6 38 0.1 32.2
11:10 1024 30.24 853 25.19 13.4 56.2 41 0.4 32.8
11:15 1024 30.24 853 25.19 13.8 56.9 39 0.1 32.1
11:20 1024 30.24 853 25.19 14.2 57.6 38 0.2 32.3
11:25 1024 30.24 853 25.19 14.5 58.2 38 0.6 33.1
11:30 1024 30.24 853 25.19 14.8 58.6 37 0.3 32.5
11:35 1024 30.24 853 25.19 14.2 57.5 38 0.1 32.1
11:40 1024 30.24 853 25.19 14 57.2 39 0.4 32.7
11:45 1024 30.24 853 25.19 14.1 57.5 38 0.3 32.5
11:50 1024 30.24 853 25.19 13.9 57 38 0 32.1
11:55 1024 30.24 853 25.19 14.1 57.3 38 0.1 32.2
12:00 1024 30.24 853 25.19 14.4 57.8 38 0.2 32.3
12:05 1023 30.21 853 25.19 14.7 58.4 38 0.8 33.4
12:10 1023 30.21 853 25.19 14.5 58.2 39 0.7 33.3
12:15 1023 30.21 852 25.16 15.2 59.4 37 0.6 33.1
12:20 1023 30.21 852 25.16 15.8 60.5 35 0.6 33
12:25 1023 30.21 852 25.16 14.9 58.8 41 1.7 35.1
12:30 1023 30.21 852 25.16 14.2 57.5 41 1.3 34.4
12:35 1023 30.21 852 25.16 14.4 57.9 38 0.5 32.9
12:40 1023 30.21 852 25.16 15.1 59.1 39 1.3 34.3
12:45 1023 30.21 852 25.16 15.3 59.5 37 0.9 33.5
12:50 1023 30.21 852 25.16 16.5 61.6 35 1 33.7
12:55 1023 30.21 852 25.16 16.3 61.3 37 1.8 35.3
13:00 1023 30.21 852 25.16 15.7 60.3 36 0.8 33.4
13:05 1023 30.21 852 25.16 16.4 61.5 36 1.2 34.2
13:10 1023 30.21 852 25.16 15.9 60.7 38 1.6 34.8
13:15 1023 30.21 852 25.16 16.4 61.4 33 0.4 32.6
13:20 1023 30.21 852 25.16 17.1 62.7 33 0.9 33.7
13:25 1023 30.21 852 25.16 16.9 62.4 34 1 33.9
13:30 1023 30.21 852 25.16 16.5 61.7 35 1.1 34
13:35 1023 30.21 852 25.16 17.1 62.8 33 1 33.7
13:40 1023 30.21 852 25.16 16.6 62 35 1 33.9
13:45 1023 30.21 852 25.16 16.4 61.6 34 0.8 33.5
13:50 1023 30.21 852 25.16 17.3 63.2 34 1.3 34.3
13:55 1023 30.21 852 25.16 17.8 64.1 31 0.6 33.1
14:00 1023 30.21 852 25.16 18 64.4 32 1.2 34.2
14:05 1023 30.21 852 25.16 17.9 64.3 32 1.3 34.3
14:10 1022 30.18 852 25.16 18.3 64.9 31 1.1 34
14:15 1022 30.18 852 25.16 18.4 65.1 31 1.3 34.3
14:20 1022 30.18 852 25.16 18.3 64.9 32 1.6 34.8
14:25 1022 30.18 852 25.16 18.7 65.6 31 1.2 34.1
14:30 1022 30.18 852 25.16 18.2 64.8 32 1.5 34.8
14:35 1022 30.18 851 25.13 17.3 63.2 33 1 33.7
14:40 1022 30.18 851 25.13 17.5 63.4 32 0.6 33.1
14:45 1022 30.18 851 25.13 18.7 65.7 31 1.2 34.2
14:50 1022 30.18 851 25.13 18.7 65.6 33 2.2 35.9
14:55 1022 30.18 851 25.13 18.8 65.8 30 1.1 34
15:00 1022 30.18 851 25.13 19.3 66.8 29 0.9 33.6
15:05 1022 30.18 851 25.13 19.2 66.6 29 1.1 34
15:10 1022 30.18 851 25.13 19.6 67.2 28 0.9 33.5
15:15 1022 30.18 851 25.13 19.5 67.2 29 1 33.8
15:20 1022 30.18 851 25.13 19.4 66.9 28 0.8 33.4
15:25 1022 30.18 851 25.13 19.7 67.4 29 1.1 34.1
15:30 1022 30.18 851 25.13 19.4 66.9 29 0.9 33.7
15:35 1022 30.18 851 25.13 19.1 66.3 30 1.3 34.3
15:40 1022 30.18 851 25.13 19.3 66.8 29 1.1 33.9
15:45 1022 30.18 851 25.13 19.7 67.4 29 1.5 34.7
15:50 1022 30.18 851 25.13 20.6 69 26 0.6 33
15:55 1022 30.18 851 25.13 19.8 67.6 29 1.4 34.5
16:00 1021 30.15 851 25.13 19.9 67.9 29 1.3 34.4
16:05 1021 30.15 851 25.13 19.5 67.1 28 0.8 33.5
16:10 1021 30.15 851 25.13 18.9 66 30 1.2 34.2
16:15 1021 30.15 851 25.13 19.4 66.9 29 1 33.8
16:20 1021 30.15 851 25.13 19.4 67 30 1.7 35
16:25 1021 30.15 851 25.13 19.1 66.4 30 1.4 34.5
16:30 1021 30.15 851 25.13 18.9 66 30 1 33.8
16:35 1021 30.15 851 25.13 19.5 67.2 28 0.9 33.6
16:40 1021 30.15 851 25.13 20.1 68.1 28 1.4 34.5
16:45 1021 30.15 851 25.13 20.2 68.4 27 0.9 33.7
16:50 1021 30.15 850 25.1 20.4 68.8 27 1 33.8
16:55 1021 30.15 850 25.1 20.8 69.4 28 1.6 34.9
17:00 1021 30.15 850 25.1 19.9 67.8 29 1.7 35.1
17:05 1021 30.15 850 25.1 19.3 66.7 29 1.2 34.1
17:10 1021 30.15 850 25.1 19.8 67.7 28 1.1 34
17:15 1021 30.15 850 25.1 20.1 68.2 28 1.4 34.4
17:20 1021 30.15 850 25.1 20.4 68.7 27 1 33.8
17:25 1021 30.15 850 25.1 20.2 68.3 27 0.9 33.7
17:30 1021 30.15 850 25.1 20.3 68.5 29 1.6 35
17:35 1021 30.15 850 25.1 19.6 67.2 29 1.2 34.1
17:40 1021 30.15 850 25.1 19.8 67.7 29 1.3 34.3
17:45 1021 30.15 850 25.1 19.7 67.5 29 1.4 34.5
17:50 1021 30.15 850 25.1 19.5 67.1 29 1.4 34.5
17:55 1021 30.15 850 25.1 19.4 66.8 29 1.2 34.1
18:00 1021 30.15 850 25.1 19.4 66.9 30 1.6 34.8
18:05 1021 30.15 850 25.1 19.5 67 30 1.6 34.9
18:10 1021 30.15 850 25.1 19.2 66.6 31 1.6 35
18:15 1021 30.15 850 25.1 19.1 66.3 30 1.3 34.4
18:20 1021 30.15 850 25.1 19.2 66.5 30 1.3 34.3
18:25 1021 30.15 850 25.1 19 66.3 30 1.4 34.5
18:30 1021 30.15 850 25.1 19 66.2 31 1.6 34.9
18:35 1021 30.15 850 25.1 19.5 67.1 29 1.3 34.3
18:40 1021 30.15 850 25.1 19.8 67.6 30 2.1 35.8
18:45 1021 30.15 850 25.1 19.3 66.7 30 1.6 34.9
18:50 1021 30.15 850 25.1 19.4 66.9 28 0.7 33.2
18:55 1021 30.15 850 25.1 19.4 66.8 29 1.1 34
19:00 1021 30.15 850 25.1 19.3 66.7 30 1.5 34.8
19:05 1020 30.12 850 25.1 19 66.1 31 1.8 35.2
19:10 1020 30.12 850 25.1 19 66.2 31 1.7 35.1
19:15 1020 30.12 850 25.1 19.1 66.4 31 1.6 34.9
19:20 1020 30.12 850 25.1 19 66.2 31 1.8 35.3
19:25 1020 30.12 850 25.1 19.1 66.3 32 2.4 36.2
19:30 1020 30.12 850 25.1 19 66.1 33 2.3 36.2
19:35 1020 30.12 850 25.1 19 66.2 29 0.7 33.3
19:40 1020 30.12 850 25.1 19.1 66.4 30 1.1 34
19:45 1020 30.12 850 25.1 19 66.2 30 1.2 34.2
19:50 1020 30.12 850 25.1 18.8 65.9 31 1.5 34.8
19:55 1020 30.12 850 25.1 18.7 65.6 32 1.7 35
20:00 1020 30.12 850 25.1 18.4 65.1 34 2.2 36
20:05 1020 30.12 850 25.1 18.2 64.7 33 1.8 35.2
20:10 1021 30.15 850 25.1 18 64.4 34 1.9 35.4
20:15 1021 30.15 850 25.1 17.7 63.9 34 1.9 35.4
20:20 1021 30.15 850 25.1 17.5 63.5 36 2.4 36.3
20:25 1021 30.15 850 25.1 17.3 63.1 37 2.5 36.6
20:30 1021 30.15 850 25.1 17 62.6 38 2.8 37.1
20:35 1021 30.15 850 25.1 16.7 62.1 39 2.7 36.9
20:40 1021 30.15 850 25.1 16.6 61.8 39 2.8 37.1
20:45 1021 30.15 850 25.1 16.3 61.3 39 2.6 36.6
20:50 1021 30.15 850 25.1 16.1 60.9 40 2.7 36.8
20:55 1021 30.15 850 25.1 15.9 60.6 40 2.3 36.2
21:00 1021 30.15 850 25.1 15.7 60.3 41 2.5 36.5
21:05 1021 30.15 850 25.1 15.5 60 41 2.3 36.2
21:10 1021 30.15 851 25.13 15.4 59.7 42 2.6 36.6
21:15 1021 30.15 851 25.13 15.2 59.4 42 2.5 36.5
21:20 1021 30.15 851 25.13 15.1 59.2 43 2.8 37.1
21:25 1021 30.15 851 25.13 15 59 43 2.5 36.5
21:30 1022 30.18 851 25.13 14.9 58.9 42 2.2 35.9
21:35 1022 30.18 851 25.13 14.9 58.8 42 2.3 36.1
21:40 1022 30.18 851 25.13 14.9 58.8 42 2.3 36.1
21:45 1022 30.18 851 25.13 14.8 58.7 42 2.2 35.9
21:50 1022 30.18 851 25.13 14.7 58.5 42 2.1 35.8
21:55 1022 30.18 851 25.13 14.6 58.2 43 2.4 36.3
22:00 1022 30.18 851 25.13 14.4 58 44 2.3 36.2
22:05 1022 30.18 851 25.13 13.9 57.1 46 2.5 36.4
22:10 1022 30.18 851 25.13 13.4 56.1 47 2.4 36.4
22:15 1022 30.18 851 25.13 13.2 55.8 47 2.2 36
22:20 1022 30.18 851 25.13 13.2 55.7 48 2.4 36.3
22:25 1022 30.18 851 25.13 13 55.3 48 2.4 36.3
22:30 1022 30.18 851 25.13 12.9 55.3 48 2.2 35.9
22:35 1022 30.18 852 25.16 13 55.4 48 2.2 36
22:40 1022 30.18 852 25.16 13.1 55.5 48 2.3 36.2
22:45 1022 30.18 852 25.16 12.9 55.2 49 2.4 36.3
22:50 1022 30.18 852 25.16 12.8 55 49 2.4 36.3
22:55 1022 30.18 852 25.16 12.8 55 49 2.4 36.3
23:00 1023 30.21 852 25.16 12.7 54.9 49 2.4 36.3
23:05 1023 30.21 852 25.16 12.8 55 49 2.4 36.3
23:10 1023 30.21 852 25.16 12.6 54.7 52 3 37.5
23:15 1023 30.21 852 25.16 11.6 52.9 57 3.3 37.9
23:20 1023 30.21 852 25.16 11.4 52.5 56 2.9 37.3
23:25 1023 30.21 852 25.16 11 51.8 58 3 37.4
23:30 1023 30.21 852 25.16 10.6 51 59 2.9 37.2
23:35 1023 30.21 852 25.16 10.5 50.9 59 2.8 37
23:40 1023 30.21 852 25.16 10.5 51 58 2.7 36.9
23:45 1023 30.21 852 25.16 10.7 51.2 58 2.8 37.1
23:50 1023 30.21 852 25.16 10.7 51.2 58 2.7 36.9
23:55 1023 30.21 852 25.16 10.7 51.2 58 2.7 36.9
24:00 1023 30.21 852 25.16 10.4 50.8 58 2.7 36.8